createdAt,value
2018-04-17T00:00:20.294Z,0.00
2018-04-17T00:01:20.216Z,0.00
2018-04-17T00:02:20.171Z,0.00
2018-04-17T00:03:20.162Z,0.00
2018-04-17T00:04:20.074Z,0.00
2018-04-17T00:05:20.025Z,0.00
2018-04-17T00:06:19.976Z,0.00
2018-04-17T00:07:19.933Z,0.00
2018-04-17T00:08:19.915Z,0.00
2018-04-17T00:09:19.831Z,0.00
2018-04-17T00:10:19.788Z,0.00
2018-04-17T00:11:19.743Z,0.00
2018-04-17T00:12:19.726Z,0.00
2018-04-17T00:13:19.647Z,0.00
2018-04-17T00:14:19.597Z,0.00
2018-04-17T00:15:19.548Z,0.00
2018-04-17T00:16:19.510Z,0.00
2018-04-17T00:17:19.493Z,0.00
2018-04-17T00:18:19.404Z,0.00
2018-04-17T00:19:19.355Z,0.00
2018-04-17T00:20:19.309Z,0.00
2018-04-17T00:21:19.260Z,0.00
2018-04-17T00:22:19.252Z,0.00
2018-04-17T00:23:19.170Z,0.00
2018-04-17T00:24:19.120Z,0.00
2018-04-17T00:25:19.112Z,0.00
2018-04-17T00:26:19.027Z,0.00
2018-04-17T00:27:19.029Z,0.00
2018-04-17T00:28:18.962Z,0.00
2018-04-17T00:29:18.884Z,0.00
2018-04-17T00:30:18.830Z,0.00
2018-04-17T00:31:18.778Z,0.00
2018-04-17T00:32:18.790Z,0.00
2018-04-17T00:33:18.720Z,0.00
2018-04-17T00:34:18.643Z,0.00
2018-04-17T00:35:18.591Z,0.00
2018-04-17T00:36:18.540Z,0.00
2018-04-17T00:37:18.543Z,0.00
2018-04-17T00:38:18.449Z,0.00
2018-04-17T00:39:18.398Z,0.00
2018-04-17T00:40:18.388Z,0.00
2018-04-17T00:41:18.301Z,0.00
2018-04-17T00:42:18.250Z,0.00
2018-04-17T00:43:18.205Z,0.00
2018-04-17T00:44:18.194Z,0.00
2018-04-17T00:45:18.109Z,0.00
2018-04-17T00:46:18.057Z,0.00
2018-04-17T00:47:18.016Z,0.00
2018-04-17T00:48:17.994Z,0.00
2018-04-17T00:49:17.957Z,0.00
2018-04-17T00:50:17.866Z,0.00
2018-04-17T00:51:17.820Z,0.00
2018-04-17T00:52:17.773Z,0.00
2018-04-17T00:53:17.722Z,0.00
2018-04-17T00:54:17.709Z,0.00
2018-04-17T00:55:17.629Z,0.00
2018-04-17T00:56:17.584Z,0.00
2018-04-17T00:57:17.537Z,0.00
2018-04-17T00:58:17.526Z,0.00
2018-04-17T00:59:17.435Z,0.00
2018-04-17T01:00:17.417Z,0.00
2018-04-17T01:01:17.336Z,0.00
2018-04-17T01:02:17.297Z,0.00
2018-04-17T01:03:17.240Z,0.00
2018-04-17T01:04:17.219Z,0.00
2018-04-17T01:05:17.146Z,0.00
2018-04-17T01:06:17.100Z,0.00
2018-04-17T01:07:17.092Z,0.00
2018-04-17T01:08:17.000Z,0.00
2018-04-17T01:09:16.951Z,0.00
2018-04-17T01:10:16.900Z,0.00
2018-04-17T01:11:16.855Z,0.00
2018-04-17T01:12:16.840Z,0.00
2018-04-17T01:13:16.754Z,0.00
2018-04-17T01:14:16.711Z,0.00
2018-04-17T01:15:16.664Z,0.00
2018-04-17T01:16:16.613Z,0.00
2018-04-17T01:17:16.609Z,0.00
2018-04-17T01:18:16.517Z,0.00
2018-04-17T01:19:16.467Z,0.00
2018-04-17T01:20:16.422Z,0.00
2018-04-17T01:21:16.376Z,0.00
2018-04-17T01:22:16.353Z,0.00
2018-04-17T01:23:16.283Z,0.00
2018-04-17T01:24:16.261Z,0.00
2018-04-17T01:25:16.176Z,0.00
2018-04-17T01:26:16.129Z,0.00
2018-04-17T01:27:16.080Z,0.00
2018-04-17T01:28:16.028Z,0.00
2018-04-17T01:29:16.034Z,0.00
2018-04-17T01:30:15.934Z,0.00
2018-04-17T01:31:15.884Z,0.00
2018-04-17T01:32:15.838Z,0.00
2018-04-17T01:33:15.823Z,0.00
2018-04-17T01:34:15.770Z,0.00
2018-04-17T01:35:15.688Z,0.00
2018-04-17T01:36:15.643Z,0.00
2018-04-17T01:37:15.596Z,0.00
2018-04-17T01:38:15.558Z,0.00
2018-04-17T01:39:15.540Z,0.00
2018-04-17T01:40:15.447Z,0.00
2018-04-17T01:41:15.397Z,0.00
2018-04-17T01:42:15.356Z,0.00
2018-04-17T01:43:15.302Z,0.00
2018-04-17T01:44:15.297Z,0.00
2018-04-17T01:45:15.204Z,0.00
2018-04-17T01:46:15.159Z,0.00
2018-04-17T01:47:15.111Z,0.00
2018-04-17T01:48:15.057Z,0.00
2018-04-17T01:49:15.044Z,0.00
2018-04-17T01:50:14.959Z,0.00
2018-04-17T01:51:14.912Z,0.00
2018-04-17T01:52:14.872Z,0.00
2018-04-17T01:53:14.818Z,0.00
2018-04-17T01:54:14.801Z,0.00
2018-04-17T01:55:14.725Z,0.00
2018-04-17T01:56:14.685Z,0.00
2018-04-17T01:57:14.620Z,0.00
2018-04-17T01:58:14.568Z,0.00
2018-04-17T01:59:14.562Z,0.00
2018-04-17T02:00:14.476Z,0.00
2018-04-17T02:01:14.473Z,0.00
2018-04-17T02:02:14.380Z,0.00
2018-04-17T02:03:14.330Z,0.00
2018-04-17T02:04:14.293Z,0.00
2018-04-17T02:05:14.241Z,0.00
2018-04-17T02:06:14.231Z,0.00
2018-04-17T02:07:14.135Z,0.00
2018-04-17T02:08:14.127Z,0.00
2018-04-17T02:09:14.045Z,0.00
2018-04-17T02:10:14.043Z,0.00
2018-04-17T02:11:13.938Z,0.00
2018-04-17T02:12:13.895Z,0.00
2018-04-17T02:13:13.897Z,0.00
2018-04-17T02:14:13.787Z,0.00
2018-04-17T02:15:13.746Z,0.00
2018-04-17T02:16:13.696Z,0.00
2018-04-17T02:17:13.658Z,0.00
2018-04-17T02:18:13.635Z,0.00
2018-04-17T02:19:13.551Z,0.00
2018-04-17T02:20:13.520Z,0.00
2018-04-17T02:21:13.480Z,0.00
2018-04-17T02:22:13.409Z,0.00
2018-04-17T02:23:13.394Z,0.00
2018-04-17T02:24:13.303Z,0.00
2018-04-17T02:25:13.270Z,0.00
2018-04-17T02:26:13.217Z,0.00
2018-04-17T02:27:13.160Z,0.00
2018-04-17T02:28:13.137Z,0.00
2018-04-17T02:29:13.054Z,0.00
2018-04-17T02:30:13.008Z,0.00
2018-04-17T02:31:12.958Z,0.00
2018-04-17T02:32:12.956Z,0.00
2018-04-17T02:33:12.857Z,0.00
2018-04-17T02:34:12.819Z,0.00
2018-04-17T02:35:12.764Z,0.00
2018-04-17T02:36:12.714Z,0.00
2018-04-17T02:37:12.711Z,0.00
2018-04-17T02:38:12.619Z,0.00
2018-04-17T02:39:12.563Z,0.00
2018-04-17T02:40:12.515Z,0.00
2018-04-17T02:41:12.471Z,0.00
2018-04-17T02:42:12.452Z,0.00
2018-04-17T02:43:12.372Z,0.00
2018-04-17T02:44:12.362Z,0.00
2018-04-17T02:45:12.271Z,0.00
2018-04-17T02:46:12.255Z,0.00
2018-04-17T02:47:12.168Z,0.00
2018-04-17T02:48:12.125Z,0.00
2018-04-17T02:49:12.122Z,0.00
2018-04-17T02:50:12.022Z,0.00
2018-04-17T02:51:11.973Z,0.00
2018-04-17T02:52:11.925Z,0.00
2018-04-17T02:53:11.909Z,0.00
2018-04-17T02:54:11.828Z,0.00
2018-04-17T02:55:11.798Z,0.00
2018-04-17T02:56:11.742Z,0.00
2018-04-17T02:57:11.679Z,0.00
2018-04-17T02:58:11.671Z,0.00
2018-04-17T02:59:11.592Z,0.00
2018-04-17T03:00:11.535Z,0.00
2018-04-17T03:01:11.528Z,0.00
2018-04-17T03:02:11.429Z,0.00
2018-04-17T03:03:11.390Z,0.00
2018-04-17T03:04:11.335Z,0.00
2018-04-17T03:05:11.287Z,0.00
2018-04-17T03:06:11.270Z,0.00
2018-04-17T03:07:11.186Z,0.00
2018-04-17T03:08:11.134Z,0.00
2018-04-17T03:09:11.092Z,0.00
2018-04-17T03:10:11.075Z,0.00
2018-04-17T03:11:10.988Z,0.00
2018-04-17T03:12:10.940Z,0.00
2018-04-17T03:13:10.890Z,0.00
2018-04-17T03:14:10.876Z,0.00
2018-04-17T03:15:10.793Z,0.00
2018-04-17T03:16:10.741Z,0.00
2018-04-17T03:17:10.722Z,0.00
2018-04-17T03:18:10.652Z,0.00
2018-04-17T03:19:10.596Z,0.00
2018-04-17T03:20:10.545Z,0.00
2018-04-17T03:21:10.492Z,0.00
2018-04-17T03:22:10.478Z,0.00
2018-04-17T03:23:10.395Z,0.00
2018-04-17T03:24:10.349Z,0.00
2018-04-17T03:25:10.294Z,0.00
2018-04-17T03:26:10.247Z,0.00
2018-04-17T03:27:10.241Z,0.00
2018-04-17T03:28:10.148Z,0.00
2018-04-17T03:29:10.101Z,0.00
2018-04-17T03:30:10.052Z,0.00
2018-04-17T03:31:10.001Z,0.00
2018-04-17T03:32:09.982Z,0.00
2018-04-17T03:33:09.902Z,0.00
2018-04-17T03:34:09.858Z,0.00
2018-04-17T03:35:09.817Z,0.00
2018-04-17T03:36:09.756Z,0.00
2018-04-17T03:37:09.726Z,0.00
2018-04-17T03:38:09.664Z,0.00
2018-04-17T03:39:09.604Z,0.00
2018-04-17T03:40:09.550Z,0.00
2018-04-17T03:41:09.508Z,0.00
2018-04-17T03:42:09.494Z,0.00
2018-04-17T03:43:09.410Z,0.00
2018-04-17T03:44:09.355Z,0.00
2018-04-17T03:45:09.343Z,0.00
2018-04-17T03:46:09.255Z,0.00
2018-04-17T03:47:09.209Z,0.00
2018-04-17T03:48:09.159Z,0.00
2018-04-17T03:49:09.154Z,0.00
2018-04-17T03:50:09.059Z,0.00
2018-04-17T03:51:09.009Z,0.00
2018-04-17T03:52:08.957Z,0.00
2018-04-17T03:53:08.907Z,0.00
2018-04-17T03:54:08.912Z,0.00
2018-04-17T03:55:08.807Z,0.00
2018-04-17T03:56:08.758Z,0.00
2018-04-17T03:57:08.710Z,0.00
2018-04-17T03:58:08.663Z,0.00
2018-04-17T03:59:08.643Z,4.00
2018-04-17T04:00:08.597Z,4.00
2018-04-17T04:01:08.522Z,0.00
2018-04-17T04:02:08.495Z,4.00
2018-04-17T04:03:08.431Z,4.00
2018-04-17T04:04:08.362Z,4.00
2018-04-17T04:05:08.312Z,4.00
2018-04-17T04:06:08.268Z,4.00
2018-04-17T04:07:08.245Z,4.00
2018-04-17T04:08:08.163Z,8.00
2018-04-17T04:09:08.123Z,8.00
2018-04-17T04:10:08.103Z,8.00
2018-04-17T04:11:08.029Z,12.00
2018-04-17T04:12:07.964Z,12.00
2018-04-17T04:13:07.958Z,12.00
2018-04-17T04:14:07.875Z,16.00
2018-04-17T04:15:07.821Z,16.00
2018-04-17T04:16:07.766Z,20.00
2018-04-17T04:17:07.777Z,20.00
2018-04-17T04:18:07.702Z,24.00
2018-04-17T04:19:07.618Z,28.00
2018-04-17T04:20:07.582Z,32.00
2018-04-17T04:21:07.559Z,32.00
2018-04-17T04:22:07.471Z,40.00
2018-04-17T04:23:07.426Z,40.00
2018-04-17T04:24:07.368Z,48.00
2018-04-17T04:25:07.318Z,48.00
2018-04-17T04:26:07.314Z,56.00
2018-04-17T04:27:07.219Z,60.00
2018-04-17T04:28:07.170Z,68.00
2018-04-17T04:29:07.122Z,72.00
2018-04-17T04:30:07.076Z,80.00
2018-04-17T04:31:07.059Z,88.00
2018-04-17T04:32:07.010Z,92.00
2018-04-17T04:33:06.925Z,100.00
2018-04-17T04:34:08.912Z,104.00
2018-04-17T04:35:06.825Z,116.00
2018-04-17T04:36:06.773Z,124.00
2018-04-17T04:37:06.754Z,132.00
2018-04-17T04:38:06.674Z,136.00
2018-04-17T04:39:06.629Z,144.00
2018-04-17T04:40:06.576Z,152.00
2018-04-17T04:41:06.528Z,160.00
2018-04-17T04:42:06.516Z,164.00
2018-04-17T04:43:06.430Z,172.00
2018-04-17T04:44:06.376Z,180.00
2018-04-17T04:45:06.324Z,188.00
2018-04-17T04:46:06.296Z,196.00
2018-04-17T04:47:06.263Z,204.00
2018-04-17T04:48:06.212Z,212.00
2018-04-17T04:49:06.129Z,224.00
2018-04-17T04:50:06.085Z,232.00
2018-04-17T04:51:06.028Z,244.00
2018-04-17T04:52:05.998Z,256.00
2018-04-17T04:53:05.958Z,268.00
2018-04-17T04:54:05.876Z,280.00
2018-04-17T04:55:05.835Z,288.00
2018-04-17T04:56:05.785Z,300.00
2018-04-17T04:57:05.738Z,316.00
2018-04-17T04:58:05.715Z,328.00
2018-04-17T04:59:05.670Z,344.00
2018-04-17T05:00:05.596Z,360.00
2018-04-17T05:01:05.529Z,380.00
2018-04-17T05:02:05.479Z,400.00
2018-04-17T05:03:05.463Z,416.00
2018-04-17T05:04:05.428Z,440.00
2018-04-17T05:05:05.345Z,464.00
2018-04-17T05:06:05.284Z,492.00
2018-04-17T05:07:05.238Z,520.00
2018-04-17T05:08:05.181Z,544.00
2018-04-17T05:09:17.697Z,576.00
2018-04-17T05:10:05.079Z,600.00
2018-04-17T05:11:05.029Z,628.00
2018-04-17T05:12:04.981Z,660.00
2018-04-17T05:13:04.958Z,688.00
2018-04-17T05:14:04.882Z,708.00
2018-04-17T05:15:04.865Z,736.00
2018-04-17T05:16:04.791Z,760.00
2018-04-17T05:17:04.729Z,788.00
2018-04-17T05:18:04.682Z,824.00
2018-04-17T05:19:04.671Z,856.00
2018-04-17T05:20:04.585Z,892.00
2018-04-17T05:21:04.538Z,928.00
2018-04-17T05:22:04.485Z,956.00
2018-04-17T05:23:04.467Z,972.00
2018-04-17T05:24:04.434Z,988.00
2018-04-17T05:25:04.341Z,996.00
2018-04-17T05:26:04.321Z,1008.00
2018-04-17T05:27:04.237Z,1016.00
2018-04-17T05:28:04.191Z,1032.00
2018-04-17T05:29:04.194Z,1048.00
2018-04-17T05:30:04.098Z,1052.00
2018-04-17T05:31:04.038Z,1068.00
2018-04-17T05:32:03.990Z,1092.00
2018-04-17T05:33:03.944Z,1112.00
2018-04-17T05:34:03.925Z,1148.00
2018-04-17T05:35:03.842Z,1200.00
2018-04-17T05:36:03.791Z,1264.00
2018-04-17T05:37:03.742Z,1324.00
2018-04-17T05:38:03.732Z,1376.00
2018-04-17T05:39:03.648Z,1424.00
2018-04-17T05:40:03.594Z,1508.00
2018-04-17T05:41:03.550Z,1604.00
2018-04-17T05:42:03.528Z,1676.00
2018-04-17T05:43:03.445Z,1764.00
2018-04-17T05:44:03.396Z,1844.00
2018-04-17T05:45:03.350Z,1920.00
2018-04-17T05:46:03.332Z,1992.00
2018-04-17T05:47:03.256Z,2056.00
2018-04-17T05:48:03.201Z,2116.00
2018-04-17T05:49:03.164Z,2196.00
2018-04-17T05:50:03.103Z,2300.00
2018-04-17T05:51:03.103Z,2380.00
2018-04-17T05:52:03.007Z,2444.00
2018-04-17T05:53:02.958Z,2508.00
2018-04-17T05:54:02.913Z,2592.00
2018-04-17T05:55:02.863Z,2708.00
2018-04-17T05:56:02.840Z,2768.00
2018-04-17T05:57:02.761Z,2808.00
2018-04-17T05:58:02.716Z,2872.00
2018-04-17T05:59:02.716Z,2916.00
2018-04-17T06:00:02.613Z,2996.00
2018-04-17T06:01:02.561Z,3120.00
2018-04-17T06:02:02.518Z,3108.00
2018-04-17T06:03:02.463Z,2972.00
2018-04-17T06:04:02.450Z,3536.00
2018-04-17T06:05:02.367Z,3028.00
2018-04-17T06:06:02.349Z,3084.00
2018-04-17T06:07:02.270Z,3196.00
2018-04-17T06:08:02.233Z,3264.00
2018-04-17T06:09:02.170Z,3316.00
2018-04-17T06:10:02.161Z,3380.00
2018-04-17T06:11:02.072Z,3400.00
2018-04-17T06:12:02.029Z,3356.00
2018-04-17T06:13:01.979Z,3344.00
2018-04-17T06:14:01.931Z,3364.00
2018-04-17T06:15:01.929Z,3392.00
2018-04-17T06:16:01.882Z,3404.00
2018-04-17T06:17:01.802Z,3428.00
2018-04-17T06:18:01.735Z,3484.00
2018-04-17T06:19:01.687Z,3560.00
2018-04-17T06:20:01.640Z,3652.00
2018-04-17T06:21:01.632Z,3736.00
2018-04-17T06:22:01.548Z,3816.00
2018-04-17T06:23:01.489Z,3916.00
2018-04-17T06:24:01.455Z,3896.00
2018-04-17T06:25:01.398Z,3960.00
2018-04-17T06:26:01.385Z,4004.00
2018-04-17T06:27:01.296Z,4020.00
2018-04-17T06:28:01.252Z,4048.00
2018-04-17T06:29:01.198Z,4136.00
2018-04-17T06:30:01.162Z,4232.00
2018-04-17T06:31:01.148Z,4224.00
2018-04-17T06:32:01.055Z,4140.00
2018-04-17T06:33:01.006Z,4176.00
2018-04-17T06:34:00.968Z,4184.00
2018-04-17T06:35:00.923Z,4296.00
2018-04-17T06:36:00.897Z,4752.00
2018-04-17T06:37:00.817Z,4492.00
2018-04-17T06:38:00.770Z,4496.00
2018-04-17T06:39:00.761Z,4428.00
2018-04-17T06:40:00.675Z,4356.00
2018-04-17T06:41:00.629Z,4392.00
2018-04-17T06:42:00.608Z,4460.00
2018-04-17T06:43:00.560Z,4604.00
2018-04-17T06:44:00.478Z,4984.00
2018-04-17T06:45:00.472Z,5284.00
2018-04-17T06:46:00.395Z,4924.00
2018-04-17T06:47:00.346Z,4756.00
2018-04-17T06:48:00.294Z,5092.00
2018-04-17T06:49:00.241Z,5116.00
2018-04-17T06:50:00.222Z,4840.00
2018-04-17T06:51:00.189Z,4844.00
2018-04-17T06:52:00.095Z,4776.00
2018-04-17T06:53:00.051Z,4632.00
2018-04-17T06:54:00.007Z,4464.00
2018-04-17T06:54:59.955Z,4368.00
2018-04-17T06:55:59.950Z,4400.00
2018-04-17T06:56:59.866Z,4568.00
2018-04-17T06:57:59.881Z,4800.00
2018-04-17T06:58:59.766Z,4848.00
2018-04-17T06:59:59.713Z,4984.00
2018-04-17T07:00:59.701Z,5060.00
2018-04-17T07:01:59.657Z,4976.00
2018-04-17T07:02:59.571Z,5164.00
2018-04-17T07:03:59.528Z,5500.00
2018-04-17T07:04:59.482Z,5676.00
2018-04-17T07:05:59.426Z,5684.00
2018-04-17T07:06:59.424Z,5592.00
2018-04-17T07:07:59.335Z,6192.00
2018-04-17T07:08:59.292Z,6648.00
2018-04-17T07:09:59.248Z,6176.00
2018-04-17T07:10:59.189Z,6140.00
2018-04-17T07:11:59.186Z,6176.00
2018-04-17T07:12:59.099Z,6308.00
2018-04-17T07:13:59.080Z,6364.00
2018-04-17T07:14:59.007Z,6424.00
2018-04-17T07:15:58.954Z,6476.00
2018-04-17T07:16:58.937Z,6524.00
2018-04-17T07:17:58.895Z,6580.00
2018-04-17T07:18:58.811Z,6624.00
2018-04-17T07:19:58.805Z,6672.00
2018-04-17T07:20:58.723Z,6712.00
2018-04-17T07:21:58.681Z,6776.00
2018-04-17T07:22:58.627Z,6820.00
2018-04-17T07:23:58.609Z,6860.00
2018-04-17T07:24:58.535Z,6900.00
2018-04-17T07:25:58.485Z,6940.00
2018-04-17T07:26:58.438Z,7020.00
2018-04-17T07:27:58.421Z,7064.00
2018-04-17T07:28:58.346Z,7096.00
2018-04-17T07:29:58.298Z,7128.00
2018-04-17T07:30:58.282Z,7188.00
2018-04-17T07:31:58.200Z,7272.00
2018-04-17T07:32:58.157Z,7368.00
2018-04-17T07:33:58.117Z,7416.00
2018-04-17T07:34:58.117Z,7472.00
2018-04-17T07:35:58.033Z,7500.00
2018-04-17T07:36:58.005Z,7472.00
2018-04-17T07:37:57.934Z,7456.00
2018-04-17T07:38:57.884Z,7476.00
2018-04-17T07:39:57.870Z,7524.00
2018-04-17T07:40:57.789Z,7568.00
2018-04-17T07:41:57.740Z,7620.00
2018-04-17T07:42:57.696Z,7688.00
2018-04-17T07:43:57.651Z,7752.00
2018-04-17T07:44:57.648Z,7816.00
2018-04-17T07:45:57.563Z,7880.00
2018-04-17T07:46:57.516Z,7920.00
2018-04-17T07:47:57.512Z,7964.00
2018-04-17T07:48:57.427Z,8032.00
2018-04-17T07:49:57.391Z,8096.00
2018-04-17T07:50:57.333Z,8188.00
2018-04-17T07:51:57.288Z,8244.00
2018-04-17T07:52:57.286Z,8340.00
2018-04-17T07:53:57.201Z,8428.00
2018-04-17T07:54:57.154Z,8452.00
2018-04-17T07:55:57.118Z,8488.00
2018-04-17T07:56:57.066Z,8516.00
2018-04-17T07:57:57.063Z,8600.00
2018-04-17T07:58:56.979Z,8692.00
2018-04-17T07:59:56.935Z,8676.00
2018-04-17T08:00:56.892Z,8644.00
2018-04-17T08:01:56.906Z,8648.00
2018-04-17T08:02:56.807Z,8608.00
2018-04-17T08:03:56.760Z,8500.00
2018-04-17T08:04:56.723Z,8188.00
2018-04-17T08:05:56.682Z,7772.00
2018-04-17T08:06:56.671Z,7460.00
2018-04-17T08:07:56.602Z,7132.00
2018-04-17T08:08:56.560Z,6800.00
2018-04-17T08:09:56.513Z,6480.00
2018-04-17T08:10:56.474Z,6172.00
2018-04-17T08:11:56.521Z,6036.00
2018-04-17T08:12:56.393Z,6400.00
2018-04-17T08:13:56.361Z,6696.00
2018-04-17T08:14:56.307Z,6964.00
2018-04-17T08:15:56.318Z,7100.00
2018-04-17T08:16:56.230Z,7096.00
2018-04-17T08:17:56.193Z,6940.00
2018-04-17T08:18:56.148Z,6880.00
2018-04-17T08:19:56.151Z,7192.00
2018-04-17T08:20:56.105Z,7564.00
2018-04-17T08:21:56.068Z,7704.00
2018-04-17T08:22:55.993Z,7768.00
2018-04-17T08:23:55.956Z,7604.00
2018-04-17T08:24:55.953Z,5792.00
2018-04-17T08:25:55.874Z,5684.00
2018-04-17T08:26:55.882Z,5812.00
2018-04-17T08:27:55.829Z,5932.00
2018-04-17T08:28:55.760Z,6160.00
2018-04-17T08:29:55.718Z,7520.00
2018-04-17T08:30:55.721Z,7748.00
2018-04-17T08:31:55.642Z,7656.00
2018-04-17T08:32:55.608Z,7604.00
2018-04-17T08:33:55.607Z,7636.00
2018-04-17T08:34:55.531Z,7500.00
2018-04-17T08:35:55.492Z,7292.00
2018-04-17T08:36:55.488Z,7076.00
2018-04-17T08:37:55.415Z,6864.00
2018-04-17T08:38:55.421Z,4636.00
2018-04-17T08:39:55.363Z,4500.00
2018-04-17T08:40:55.302Z,4604.00
2018-04-17T08:41:55.271Z,6644.00
2018-04-17T08:42:55.224Z,5016.00
2018-04-17T08:43:55.216Z,5256.00
2018-04-17T08:44:55.150Z,5328.00
2018-04-17T08:45:55.110Z,5452.00
2018-04-17T08:46:55.193Z,5512.00
2018-04-17T08:47:55.033Z,5560.00
2018-04-17T08:48:55.035Z,5720.00
2018-04-17T08:49:54.958Z,5816.00
2018-04-17T08:50:54.919Z,5440.00
2018-04-17T08:51:54.919Z,5036.00
2018-04-17T08:52:54.841Z,4776.00
2018-04-17T08:53:54.798Z,4668.00
2018-04-17T08:54:54.758Z,4692.00
2018-04-17T08:55:54.724Z,4840.00
2018-04-17T08:56:54.715Z,4768.00
2018-04-17T08:57:54.647Z,4908.00
2018-04-17T08:58:54.625Z,5064.00
2018-04-17T08:59:54.570Z,5316.00
2018-04-17T09:00:54.534Z,6332.00
2018-04-17T09:01:54.514Z,7188.00
2018-04-17T09:02:54.476Z,7288.00
2018-04-17T09:03:54.403Z,7444.00
2018-04-17T09:04:54.380Z,7580.00
2018-04-17T09:05:54.325Z,7572.00
2018-04-17T09:06:54.289Z,7516.00
2018-04-17T09:07:54.277Z,7532.00
2018-04-17T09:08:54.204Z,7144.00
2018-04-17T09:09:54.200Z,7700.00
2018-04-17T09:10:54.122Z,8168.00
2018-04-17T09:11:54.115Z,7888.00
2018-04-17T09:12:54.049Z,7560.00
2018-04-17T09:13:54.008Z,7424.00
2018-04-17T09:14:54.009Z,7412.00
2018-04-17T09:15:53.926Z,7348.00
2018-04-17T09:16:53.886Z,7184.00
2018-04-17T09:17:53.854Z,6884.00
2018-04-17T09:18:53.813Z,6548.00
2018-04-17T09:19:53.815Z,6596.00
2018-04-17T09:20:53.766Z,5540.00
2018-04-17T09:21:53.697Z,6016.00
2018-04-17T09:22:53.660Z,6336.00
2018-04-17T09:23:53.683Z,6320.00
2018-04-17T09:24:53.582Z,6268.00
2018-04-17T09:25:53.576Z,6276.00
2018-04-17T09:26:53.511Z,6392.00
2018-04-17T09:27:53.468Z,6520.00
2018-04-17T09:28:53.434Z,6600.00
2018-04-17T09:29:53.425Z,6696.00
2018-04-17T09:30:53.388Z,6748.00
2018-04-17T09:31:53.318Z,6724.00
2018-04-17T09:32:53.283Z,6784.00
2018-04-17T09:33:53.241Z,7028.00
2018-04-17T09:34:53.201Z,7280.00
2018-04-17T09:35:53.223Z,7472.00
2018-04-17T09:36:53.127Z,7512.00
2018-04-17T09:37:53.092Z,7556.00
2018-04-17T09:38:53.054Z,7664.00
2018-04-17T09:39:53.020Z,7672.00
2018-04-17T09:40:53.030Z,7476.00
2018-04-17T09:41:52.943Z,7224.00
2018-04-17T09:42:52.907Z,7400.00
2018-04-17T09:43:52.871Z,5944.00
2018-04-17T09:44:52.852Z,6748.00
2018-04-17T09:45:52.841Z,6564.00
2018-04-17T09:46:52.814Z,6832.00
2018-04-17T09:47:52.746Z,5700.00
2018-04-17T09:48:52.693Z,5376.00
2018-04-17T09:49:52.656Z,5300.00
2018-04-17T09:50:52.616Z,5300.00
2018-04-17T09:51:52.618Z,6096.00
2018-04-17T09:52:52.551Z,6020.00
2018-04-17T09:53:52.510Z,5168.00
2018-04-17T09:54:52.481Z,5284.00
2018-04-17T09:55:52.436Z,5352.00
2018-04-17T09:56:52.441Z,6452.00
2018-04-17T09:57:52.406Z,5704.00
2018-04-17T09:58:52.343Z,5488.00
2018-04-17T09:59:52.309Z,4692.00
2018-04-17T10:00:52.260Z,4536.00
2018-04-17T10:01:52.264Z,4512.00
2018-04-17T10:02:52.191Z,4684.00
2018-04-17T10:03:52.150Z,4716.00
2018-04-17T10:04:52.123Z,5804.00
2018-04-17T10:05:52.083Z,5976.00
2018-04-17T10:06:52.097Z,6100.00
2018-04-17T10:07:52.000Z,6160.00
2018-04-17T10:08:52.018Z,6124.00
2018-04-17T10:09:51.920Z,6032.00
2018-04-17T10:10:51.889Z,5892.00
2018-04-17T10:11:51.846Z,5836.00
2018-04-17T10:12:51.820Z,5872.00
2018-04-17T10:13:51.814Z,5824.00
2018-04-17T10:14:51.742Z,5888.00
2018-04-17T10:15:51.701Z,5956.00
2018-04-17T10:16:51.668Z,6008.00
2018-04-17T10:17:51.658Z,5968.00
2018-04-17T10:18:51.623Z,5976.00
2018-04-17T10:19:51.553Z,5912.00
2018-04-17T10:20:51.553Z,5964.00
2018-04-17T10:21:51.484Z,4260.00
2018-04-17T10:22:51.446Z,4328.00
2018-04-17T10:23:51.414Z,4420.00
2018-04-17T10:24:51.373Z,4536.00
2018-04-17T10:25:51.371Z,4792.00
2018-04-17T10:26:51.305Z,4804.00
2018-04-17T10:27:51.270Z,4540.00
2018-04-17T10:28:51.228Z,4372.00
2018-04-17T10:29:51.241Z,4320.00
2018-04-17T10:30:51.212Z,4328.00
2018-04-17T10:31:51.124Z,4444.00
2018-04-17T10:32:51.082Z,4532.00
2018-04-17T10:33:51.059Z,4604.00
2018-04-17T10:34:51.021Z,4644.00
2018-04-17T10:35:51.027Z,4704.00
2018-04-17T10:36:50.961Z,4656.00
2018-04-17T10:37:50.909Z,4664.00
2018-04-17T10:38:50.872Z,4616.00
2018-04-17T10:39:50.846Z,5080.00
2018-04-17T10:40:50.826Z,4768.00
2018-04-17T10:41:50.802Z,4716.00
2018-04-17T10:42:50.718Z,6188.00
2018-04-17T10:43:50.676Z,6552.00
2018-04-17T10:44:50.649Z,5016.00
2018-04-17T10:45:50.612Z,4488.00
2018-04-17T10:46:50.603Z,4380.00
2018-04-17T10:47:50.541Z,4308.00
2018-04-17T10:48:50.497Z,4416.00
2018-04-17T10:49:50.458Z,4360.00
2018-04-17T10:50:50.466Z,4408.00
2018-04-17T10:51:50.427Z,4424.00
2018-04-17T10:52:50.385Z,6252.00
2018-04-17T10:53:50.319Z,4648.00
2018-04-17T10:54:50.314Z,4268.00
2018-04-17T10:55:50.256Z,4204.00
2018-04-17T10:56:50.211Z,4252.00
2018-04-17T10:57:50.166Z,4548.00
2018-04-17T10:58:50.133Z,6400.00
2018-04-17T10:59:50.167Z,6404.00
2018-04-17T11:00:50.057Z,6136.00
2018-04-17T11:01:50.017Z,4192.00
2018-04-17T11:02:49.981Z,4508.00
2018-04-17T11:03:49.945Z,5732.00
2018-04-17T11:04:50.003Z,4144.00
2018-04-17T11:05:49.873Z,4172.00
2018-04-17T11:06:49.837Z,4352.00
2018-04-17T11:07:49.793Z,4780.00
2018-04-17T11:08:49.807Z,6292.00
2018-04-17T11:09:49.720Z,6464.00
2018-04-17T11:10:49.686Z,4928.00
2018-04-17T11:11:49.650Z,4372.00
2018-04-17T11:12:49.611Z,4688.00
2018-04-17T11:13:49.608Z,6196.00
2018-04-17T11:14:49.532Z,5476.00
2018-04-17T11:15:49.503Z,6324.00
2018-04-17T11:16:49.459Z,6348.00
2018-04-17T11:17:49.463Z,6336.00
2018-04-17T11:18:49.391Z,6300.00
2018-04-17T11:19:49.363Z,6232.00
2018-04-17T11:20:49.317Z,6160.00
2018-04-17T11:21:49.278Z,6084.00
2018-04-17T11:22:49.281Z,6036.00
2018-04-17T11:23:49.207Z,6052.00
2018-04-17T11:24:49.200Z,6048.00
2018-04-17T11:25:49.137Z,5972.00
2018-04-17T11:26:49.096Z,5956.00
2018-04-17T11:27:49.071Z,5956.00
2018-04-17T11:28:49.050Z,5948.00
2018-04-17T11:29:48.994Z,5284.00
2018-04-17T11:30:48.984Z,4100.00
2018-04-17T11:31:48.916Z,4840.00
2018-04-17T11:32:48.876Z,5804.00
2018-04-17T11:33:48.842Z,5880.00
2018-04-17T11:34:48.813Z,5832.00
2018-04-17T11:35:48.828Z,5816.00
2018-04-17T11:36:48.732Z,5776.00
2018-04-17T11:37:48.701Z,4080.00
2018-04-17T11:38:48.669Z,3572.00
2018-04-17T11:39:48.667Z,3540.00
2018-04-17T11:40:48.652Z,3672.00
2018-04-17T11:41:48.558Z,5316.00
2018-04-17T11:42:48.567Z,5624.00
2018-04-17T11:43:48.486Z,5576.00
2018-04-17T11:44:48.445Z,5480.00
2018-04-17T11:45:48.459Z,5476.00
2018-04-17T11:46:48.375Z,5520.00
2018-04-17T11:47:48.339Z,5468.00
2018-04-17T11:48:48.301Z,5548.00
2018-04-17T11:49:48.279Z,5552.00
2018-04-17T11:50:48.265Z,5528.00
2018-04-17T11:51:48.239Z,5456.00
2018-04-17T11:52:48.164Z,5388.00
2018-04-17T11:53:48.122Z,5428.00
2018-04-17T11:54:48.083Z,5476.00
2018-04-17T11:55:48.089Z,5108.00
2018-04-17T11:56:48.020Z,5552.00
2018-04-17T11:57:47.985Z,5588.00
2018-04-17T11:58:47.947Z,5524.00
2018-04-17T11:59:47.948Z,5492.00
2018-04-17T12:00:47.874Z,5576.00
2018-04-17T12:01:47.836Z,5500.00
2018-04-17T12:02:47.802Z,5504.00
2018-04-17T12:03:47.763Z,5524.00
2018-04-17T12:04:47.771Z,5420.00
2018-04-17T12:05:47.684Z,5288.00
2018-04-17T12:06:47.651Z,5340.00
2018-04-17T12:07:47.620Z,3696.00
2018-04-17T12:08:47.591Z,5288.00
2018-04-17T12:09:47.582Z,5424.00
2018-04-17T12:10:47.516Z,5292.00
2018-04-17T12:11:47.472Z,5312.00
2018-04-17T12:12:47.440Z,5412.00
2018-04-17T12:13:47.398Z,5368.00
2018-04-17T12:14:47.404Z,5444.00
2018-04-17T12:15:47.329Z,5420.00
2018-04-17T12:16:47.288Z,5372.00
2018-04-17T12:17:47.253Z,5220.00
2018-04-17T12:18:47.239Z,5316.00
2018-04-17T12:19:47.228Z,5368.00
2018-04-17T12:20:47.153Z,5316.00
2018-04-17T12:21:47.109Z,5208.00
2018-04-17T12:22:47.084Z,5116.00
2018-04-17T12:23:47.060Z,5328.00
2018-04-17T12:24:47.054Z,5396.00
2018-04-17T12:25:46.976Z,5436.00
2018-04-17T12:26:46.936Z,3320.00
2018-04-17T12:27:46.900Z,3256.00
2018-04-17T12:28:46.865Z,3304.00
2018-04-17T12:29:46.874Z,3232.00
2018-04-17T12:30:46.838Z,3108.00